Time,TemperatureF,DewpointF,PressureIn,WindDirection,WindDirectionDegrees,WindSpeedMPH,WindSpeedGustMPH,Humidity,HourlyPrecipIn,Conditions,Clouds,dailyrainin,SoftwareType,DateUTC
2017-04-24 00:00:00,34.0,27.2,29.93,ESE,108,3.0,4.0,76,0.00,,,0.00,Wunderground v.1.15,2017-04-24 05:00:00,
2017-04-24 00:30:00,33.8,27.0,29.92,WNW,300,2.0,3.0,76,0.00,,,0.00,Wunderground v.1.15,2017-04-24 05:30:00,
2017-04-24 01:01:00,33.3,26.2,29.91,North,5,2.0,3.0,75,0.00,,,0.00,Wunderground v.1.15,2017-04-24 06:01:00,
2017-04-24 01:30:00,33.0,26.3,29.89,ENE,64,2.0,3.0,76,0.00,,,0.00,Wunderground v.1.15,2017-04-24 06:30:00,
2017-04-24 02:01:00,33.1,26.7,29.88,East,80,2.0,2.0,77,0.00,,,0.00,Wunderground v.1.15,2017-04-24 07:01:00,
2017-04-24 02:30:00,33.4,27.0,29.86,NE,47,2.0,2.0,77,0.00,,,0.00,Wunderground v.1.15,2017-04-24 07:30:00,
2017-04-24 03:01:00,33.2,26.8,29.85,NE,49,2.0,2.0,77,0.00,,,0.00,Wunderground v.1.15,2017-04-24 08:01:00,
2017-04-24 03:30:00,33.2,27.1,29.84,NE,55,2.0,2.0,78,0.00,,,0.00,Wunderground v.1.15,2017-04-24 08:30:00,
2017-04-24 04:00:00,33.2,27.7,29.83,NE,53,2.0,2.0,80,0.00,,,0.00,Wunderground v.1.15,2017-04-24 09:00:00,
2017-04-24 04:30:00,33.4,28.2,29.82,ENE,77,2.0,2.0,81,0.00,,,0.00,Wunderground v.1.15,2017-04-24 09:30:00,
2017-04-24 05:01:00,33.4,28.5,29.81,East,90,1.0,1.0,82,0.00,,,0.00,Wunderground v.1.15,2017-04-24 10:01:00,
2017-04-24 05:30:00,33.5,28.9,29.79,ENE,65,1.0,1.0,83,0.00,,,0.00,Wunderground v.1.15,2017-04-24 10:30:00,
2017-04-24 06:00:00,33.4,29.4,29.78,NE,48,1.0,1.0,85,0.00,,,0.00,Wunderground v.1.15,2017-04-24 11:00:00,
2017-04-24 06:30:00,34.2,30.4,29.78,SSE,148,2.0,2.0,86,0.00,,,0.00,Wunderground v.1.15,2017-04-24 11:30:00,
2017-04-24 07:01:00,35.5,31.7,29.76,SE,126,1.0,2.0,86,0.00,,,0.00,Wunderground v.1.15,2017-04-24 12:01:00,
2017-04-24 07:30:00,36.8,32.7,29.76,ENE,77,2.0,2.0,85,0.00,,,0.00,Wunderground v.1.15,2017-04-24 12:30:00,
2017-04-24 08:00:00,38.3,34.2,29.76,ESE,115,1.0,3.0,85,0.00,,,0.00,Wunderground v.1.15,2017-04-24 13:00:00,
2017-04-24 08:30:00,40.0,35.3,29.74,ESE,103,2.0,2.0,83,0.00,,,0.00,Wunderground v.1.15,2017-04-24 13:30:00,
2017-04-24 09:00:00,43.3,36.9,29.73,SE,140,4.0,4.0,78,0.00,,,0.00,Wunderground v.1.15,2017-04-24 14:00:00,
2017-04-24 09:30:00,46.7,38.5,29.71,SE,126,2.0,4.0,73,0.00,,,0.00,Wunderground v.1.15,2017-04-24 14:30:00,
2017-04-24 10:00:00,50.4,39.1,29.69,ENE,70,4.0,4.0,65,0.00,,,0.00,Wunderground v.1.15,2017-04-24 15:00:00,
2017-04-24 10:30:00,53.4,40.3,29.68,ESE,113,4.0,4.0,61,0.00,,,0.00,Wunderground v.1.15,2017-04-24 15:30:00,
2017-04-24 11:00:00,55.3,40.3,29.66,ESE,121,5.0,5.0,57,0.00,,,0.00,Wunderground v.1.15,2017-04-24 16:00:00,
2017-04-24 11:30:00,55.8,40.8,29.65,South,174,4.0,4.0,57,0.00,,,0.00,Wunderground v.1.15,2017-04-24 16:30:00,
2017-04-24 12:00:00,57.5,41.9,29.64,SE,145,5.0,5.0,56,0.00,,,0.00,Wunderground v.1.15,2017-04-24 17:00:00,
2017-04-24 12:30:00,61.8,41.9,29.61,SSE,165,5.0,22.0,48,0.00,,,0.00,Wunderground v.1.15,2017-04-24 17:30:00,
2017-04-24 13:01:00,64.7,41.7,29.60,SSW,202,7.0,7.0,43,0.00,,,0.00,Wunderground v.1.15,2017-04-24 18:01:00,
2017-04-24 13:30:00,62.3,39.5,29.59,SSE,153,7.0,8.0,43,0.00,,,0.00,Wunderground v.1.15,2017-04-24 18:30:00,
2017-04-24 14:01:00,61.7,38.4,29.57,SSE,147,6.0,6.0,42,0.00,,,0.00,Wunderground v.1.15,2017-04-24 19:01:00,
2017-04-24 14:30:00,61.1,37.2,29.57,SSE,149,7.0,14.0,41,0.00,,,0.00,Wunderground v.1.15,2017-04-24 19:30:00,
2017-04-24 15:01:00,61.3,37.4,29.56,South,188,6.0,6.0,41,0.00,,,0.00,Wunderground v.1.15,2017-04-24 20:01:00,
2017-04-24 15:30:00,63.2,38.5,29.55,SSW,211,6.0,6.0,40,0.00,,,0.00,Wunderground v.1.15,2017-04-24 20:30:00,
2017-04-24 16:01:00,64.0,39.2,29.53,SE,144,5.0,7.0,40,0.00,,,0.00,Wunderground v.1.15,2017-04-24 21:01:00,
2017-04-24 16:30:00,65.8,39.5,29.51,SSW,192,4.0,5.0,38,0.00,,,0.00,Wunderground v.1.15,2017-04-24 21:30:00,
2017-04-24 17:00:00,65.8,37.4,29.50,SSE,159,6.0,6.0,35,0.00,,,0.00,Wunderground v.1.15,2017-04-24 22:00:00,
2017-04-24 17:30:00,64.8,37.2,29.52,South,172,5.0,5.0,36,0.00,,,0.00,Wunderground v.1.15,2017-04-24 22:30:00,
2017-04-24 18:01:00,61.2,43.9,29.57,SE,145,6.0,6.0,53,0.00,,,0.01,Wunderground v.1.15,2017-04-24 23:01:00,
2017-04-24 18:30:00,53.4,47.7,29.54,SE,136,0.0,0.0,81,0.00,,,0.02,Wunderground v.1.15,2017-04-24 23:30:00,